Time;durP1;ratioP1;P1;durP2;ratioP2;P2;SDS_P1;SDS_P2;PMS_P1;PMS_P2;Temp;Humidity;BMP_temperature;BMP_pressure;BME280_temperature;BME280_humidity;BME280_pressure;Samples;Min_cycle;Max_cycle;Signal;HPM_P1;HPM_P2
2021/09/07 00:01:35;;;;;;;11.10;5.40;;;;;;;13.04;100.00;95623.91;10279066;28;20286;-72
2021/09/07 00:06:35;;;;;;;10.07;5.43;;;;;;;13.11;100.00;95619.03;10279615;28;20298;-71
2021/09/07 00:11:36;;;;;;;9.13;5.07;;;;;;;12.96;100.00;95611.75;10278377;28;20387;-72
2021/09/07 00:16:36;;;;;;;10.13;5.70;;;;;;;12.86;100.00;95610.91;10278885;28;20282;-71
2021/09/07 00:21:37;;;;;;;9.68;6.13;;;;;;;12.77;100.00;95611.41;10277906;28;20038;-71
2021/09/07 00:26:37;;;;;;;12.57;5.95;;;;;;;12.87;100.00;95613.34;10277592;28;20029;-71
2021/09/07 00:31:37;;;;;;;12.05;5.75;;;;;;;12.86;100.00;95617.09;10279220;28;20034;-71
2021/09/07 00:36:38;;;;;;;8.87;5.57;;;;;;;12.85;100.00;95620.06;10278427;28;20486;-71
2021/09/07 00:41:39;;;;;;;8.07;5.47;;;;;;;12.78;100.00;95618.44;10278323;28;20288;-75
2021/09/07 00:46:40;;;;;;;12.32;5.95;;;;;;;12.62;100.00;95630.25;10277927;28;20026;-73
2021/09/07 00:51:41;;;;;;;10.07;5.27;;;;;;;12.43;100.00;95630.72;10277448;28;20030;-73
2021/09/07 00:56:43;;;;;;;12.02;7.10;;;;;;;12.04;100.00;95631.06;10281766;28;20031;-73
2021/09/07 01:01:43;;;;;;;16.50;6.10;;;;;;;11.93;100.00;95618.53;10285735;28;20508;-71
2021/09/07 01:06:44;;;;;;;12.30;7.07;;;;;;;11.88;100.00;95619.31;10285780;28;20079;-72
2021/09/07 01:11:44;;;;;;;12.18;7.53;;;;;;;11.94;100.00;95614.81;10284185;28;20033;-71
2021/09/07 01:16:45;;;;;;;16.33;7.05;;;;;;;11.97;100.00;95608.88;10285327;28;20041;-71
2021/09/07 01:21:46;;;;;;;12.93;5.57;;;;;;;11.94;100.00;95618.31;10285638;28;21256;-72
2021/09/07 01:26:46;;;;;;;10.47;6.90;;;;;;;12.00;100.00;95615.66;10285455;28;20089;-72
2021/09/07 01:31:46;;;;;;;13.97;7.03;;;;;;;11.84;100.00;95620.09;10285179;28;20033;-71
2021/09/07 01:36:47;;;;;;;9.77;6.30;;;;;;;11.60;100.00;95628.53;10284378;28;20387;-70
2021/09/07 01:41:48;;;;;;;13.80;7.55;;;;;;;11.55;100.00;95620.41;10283436;28;20317;-72
2021/09/07 01:46:49;;;;;;;13.25;8.63;;;;;;;11.46;100.00;95628.97;10283908;28;20035;-72
2021/09/07 01:51:50;;;;;;;13.88;8.15;;;;;;;11.50;100.00;95625.75;10266003;28;20019;-72
2021/09/07 01:56:50;;;;;;;12.07;7.80;;;;;;;11.59;100.00;95621.53;10282516;28;20034;-71
2021/09/07 02:01:50;;;;;;;21.27;9.45;;;;;;;11.59;100.00;95616.16;10281652;28;20038;-72
2021/09/07 02:06:51;;;;;;;18.63;9.53;;;;;;;11.61;100.00;95614.03;10282803;28;20051;-71
2021/09/07 02:11:51;;;;;;;14.37;9.40;;;;;;;11.57;100.00;95613.72;10280956;28;20084;-71
2021/09/07 02:16:51;;;;;;;14.87;8.67;;;;;;;11.51;100.00;95613.94;10282657;28;20113;-71
2021/09/07 02:21:52;;;;;;;17.23;9.33;;;;;;;11.57;100.00;95610.22;10280733;28;20034;-71
2021/09/07 02:26:52;;;;;;;18.50;10.30;;;;;;;11.44;100.00;95617.66;10282583;28;20310;-71
2021/09/07 02:31:52;;;;;;;22.30;9.83;;;;;;;11.37;100.00;95603.59;10281655;28;20369;-71
2021/09/07 02:36:53;;;;;;;15.37;10.53;;;;;;;11.47;100.00;95605.56;10282289;28;20809;-71
2021/09/07 02:41:54;;;;;;;22.10;12.13;;;;;;;11.48;100.00;95604.47;10280196;28;20446;-72
2021/09/07 02:46:54;;;;;;;14.40;10.07;;;;;;;11.51;100.00;95605.84;10281527;28;20031;-72
2021/09/07 02:51:54;;;;;;;21.17;11.23;;;;;;;11.53;100.00;95604.53;10281477;28;20058;-72
2021/09/07 02:56:55;;;;;;;18.27;12.45;;;;;;;11.62;100.00;95600.31;10283284;28;20026;-72
2021/09/07 03:01:55;;;;;;;16.57;11.37;;;;;;;11.66;100.00;95608.66;10282794;28;20673;-72
2021/09/07 03:06:55;;;;;;;16.20;12.47;;;;;;;11.70;100.00;95600.88;10282648;28;20537;-72
2021/09/07 03:11:56;;;;;;;20.57;12.60;;;;;;;11.75;100.00;95599.03;10282523;28;20827;-72
2021/09/07 03:16:56;;;;;;;21.47;12.47;;;;;;;11.82;100.00;95603.38;10280708;28;20533;-72
2021/09/07 03:21:57;;;;;;;15.57;11.00;;;;;;;11.56;100.00;95598.63;10279412;28;20376;-72
2021/09/07 03:26:57;;;;;;;21.60;12.48;;;;;;;11.44;100.00;95600.69;10282816;28;20074;-71
2021/09/07 03:31:57;;;;;;;13.97;10.27;;;;;;;11.35;100.00;95594.97;10280427;28;20026;-71
2021/09/07 03:36:58;;;;;;;11.67;8.27;;;;;;;11.27;100.00;95601.66;10281564;28;20281;-71
2021/09/07 03:41:58;;;;;;;17.95;8.13;;;;;;;11.19;100.00;95599.41;10281689;28;20031;-72
2021/09/07 03:46:59;;;;;;;14.63;7.90;;;;;;;11.03;100.00;95598.44;10281363;28;20187;-72
2021/09/07 03:51:59;;;;;;;14.10;7.60;;;;;;;10.99;100.00;95602.72;10280927;28;20281;-72
2021/09/07 03:56:59;;;;;;;17.87;8.67;;;;;;;10.98;100.00;95603.78;10281068;28;20266;-72
2021/09/07 04:02:00;;;;;;;18.17;8.77;;;;;;;10.89;100.00;95597.25;10281543;28;20117;-72
2021/09/07 04:07:00;;;;;;;14.03;9.27;;;;;;;10.91;100.00;95603.16;10280864;28;20058;-72
2021/09/07 04:12:00;;;;;;;20.00;9.70;;;;;;;11.01;100.00;95605.97;10280163;28;20270;-72
2021/09/07 04:17:02;;;;;;;15.40;8.93;;;;;;;10.98;100.00;95609.19;10280847;28;20031;-72
2021/09/07 04:22:03;;;;;;;16.52;10.45;;;;;;;11.13;100.00;95613.06;10279498;28;20290;-72
2021/09/07 04:27:03;;;;;;;16.95;8.90;;;;;;;11.22;100.00;95616.91;10280114;28;20034;-72
2021/09/07 04:32:04;;;;;;;18.20;10.30;;;;;;;11.25;100.00;95633.34;10279311;28;20023;-71
2021/09/07 04:37:04;;;;;;;14.93;9.63;;;;;;;11.34;100.00;95631.00;10280147;28;20089;-71
2021/09/07 04:42:05;;;;;;;17.10;10.00;;;;;;;11.36;100.00;95630.75;10278648;28;20085;-72
2021/09/07 04:47:05;;;;;;;20.13;10.82;;;;;;;11.37;100.00;95625.13;10279554;28;20276;-72
2021/09/07 04:52:07;;;;;;;16.23;10.33;;;;;;;11.49;100.00;95643.00;10279764;28;20114;-72
2021/09/07 04:57:07;;;;;;;18.40;10.00;;;;;;;11.52;100.00;95634.41;10279377;28;20035;-71
2021/09/07 05:02:08;;;;;;;15.63;10.17;;;;;;;11.45;100.00;95638.09;10279779;28;20398;-72
2021/09/07 05:07:08;;;;;;;20.57;10.67;;;;;;;11.71;100.00;95638.31;10277141;28;20305;-71
2021/09/07 05:12:08;;;;;;;21.43;9.67;;;;;;;12.01;100.00;95639.63;10279253;28;20078;-71
2021/09/07 05:17:11;;;;;;;25.08;10.77;;;;;;;12.17;100.00;95642.41;10279004;28;20271;-71
2021/09/07 05:22:11;;;;;;;9.85;6.60;;;;;;;12.50;100.00;95646.63;10278948;28;20081;-71
2021/09/07 05:27:12;;;;;;;17.98;6.53;;;;;;;12.53;100.00;95648.81;10281171;28;20089;-70
2021/09/07 05:32:12;;;;;;;15.10;6.70;;;;;;;12.77;100.00;95651.88;10280917;28;20081;-71
2021/09/07 05:37:13;;;;;;;13.43;6.75;;;;;;;13.07;100.00;95652.25;10282085;28;20030;-71
2021/09/07 05:42:13;;;;;;;13.23;7.07;;;;;;;13.47;100.00;95643.44;10284058;28;20023;-70
2021/09/07 05:47:14;;;;;;;12.20;6.95;;;;;;;13.83;100.00;95640.72;10289035;28;20173;-70
2021/09/07 05:52:14;;;;;;;10.33;6.80;;;;;;;14.38;100.00;95650.91;10289358;28;20134;-71
2021/09/07 05:57:14;;;;;;;8.53;6.23;;;;;;;15.27;100.00;95650.28;10328402;28;20030;-72
2021/09/07 06:02:15;;;;;;;9.63;5.67;;;;;;;15.76;100.00;95639.66;10327947;28;20034;-71
2021/09/07 06:07:16;;;;;;;11.13;5.65;;;;;;;15.94;100.00;95635.47;10327558;28;20529;-71
2021/09/07 06:12:17;;;;;;;9.77;5.10;;;;;;;16.46;100.00;95642.00;10327878;28;20035;-71
2021/09/07 06:17:17;;;;;;;8.73;4.67;;;;;;;17.27;100.00;95635.06;10327964;28;20030;-71
2021/09/07 06:22:17;;;;;;;10.65;4.72;;;;;;;17.04;100.00;95646.50;10326142;28;20285;-71
2021/09/07 06:27:19;;;;;;;7.57;4.53;;;;;;;16.55;100.00;95634.84;10327615;28;20030;-71
2021/09/07 06:32:19;;;;;;;9.50;5.18;;;;;;;16.39;100.00;95645.03;10327379;28;20035;-71
2021/09/07 06:37:20;;;;;;;8.10;5.03;;;;;;;16.72;100.00;95642.50;10327207;28;20490;-71
2021/09/07 06:42:20;;;;;;;8.10;5.03;;;;;;;17.01;100.00;95643.53;10327114;28;20327;-71
2021/09/07 06:47:20;;;;;;;13.75;4.93;;;;;;;17.42;100.00;95634.84;10326951;28;20057;-72
2021/09/07 06:52:22;;;;;;;9.27;5.13;;;;;;;18.43;100.00;95644.34;10325937;28;20413;-71
2021/09/07 06:57:23;;;;;;;9.45;4.75;;;;;;;18.78;100.00;95630.31;10326639;28;20034;-72
2021/09/07 07:02:23;;;;;;;12.55;4.85;;;;;;;19.11;99.13;95636.47;10326672;28;20469;-72
2021/09/07 07:07:24;;;;;;;8.20;4.20;;;;;;;19.51;99.60;95637.78;10326234;28;20054;-72
2021/09/07 07:12:24;;;;;;;8.47;4.13;;;;;;;20.90;86.39;95635.09;10326355;28;20121;-72
2021/09/07 07:17:24;;;;;;;9.73;4.03;;;;;;;23.02;60.29;95626.34;10326009;28;20072;-72
2021/09/07 07:22:25;;;;;;;9.33;5.90;;;;;;;25.06;54.19;95634.81;10325482;28;20350;-72
2021/09/07 07:27:27;;;;;;;10.30;3.42;;;;;;;25.67;45.85;95633.13;10325722;28;20050;-70
2021/09/07 07:32:27;;;;;;;5.30;3.30;;;;;;;26.02;43.18;95638.09;10324891;28;20838;-71
2021/09/07 07:37:27;;;;;;;6.53;3.73;;;;;;;26.16;41.69;95625.88;10325041;28;20038;-71
2021/09/07 07:42:28;;;;;;;2.97;2.67;;;;;;;27.12;39.90;95633.03;10324955;28;20507;-71
2021/09/07 07:47:28;;;;;;;5.67;2.83;;;;;;;25.25;38.44;95639.72;10307477;28;20030;-71
2021/09/07 07:52:28;;;;;;;8.47;3.07;;;;;;;23.42;40.11;95661.63;10324447;28;20030;-71
2021/09/07 07:57:29;;;;;;;5.43;3.23;;;;;;;22.50;42.66;95635.59;10324753;28;20289;-71
2021/09/07 08:02:29;;;;;;;4.83;2.93;;;;;;;23.18;42.04;95643.06;10324315;28;20109;-71
2021/09/07 08:07:29;;;;;;;7.27;2.77;;;;;;;24.58;39.08;95637.16;10323655;28;20054;-71
2021/09/07 08:12:30;;;;;;;10.03;2.43;;;;;;;25.06;36.82;95643.06;10323951;28;20520;-71
2021/09/07 08:17:30;;;;;;;3.97;2.30;;;;;;;24.01;37.60;95644.22;10323794;28;20045;-73
2021/09/07 08:22:31;;;;;;;5.60;3.72;;;;;;;24.07;39.88;95633.81;10323714;28;20726;-73
2021/09/07 08:27:31;;;;;;;3.97;2.37;;;;;;;23.60;39.28;95640.34;10323266;28;20383;-72
2021/09/07 08:32:31;;;;;;;6.73;2.10;;;;;;;26.37;34.67;95620.94;10323800;28;20819;-72
2021/09/07 08:37:32;;;;;;;4.72;2.65;;;;;;;23.48;38.32;95635.56;10323253;28;20038;-72
2021/09/07 08:42:34;;;;;;;9.67;3.67;;;;;;;24.67;37.86;95628.84;10323637;28;20030;-71
2021/09/07 08:47:35;;;;;;;4.65;2.50;;;;;;;26.81;33.54;95614.56;10323362;28;20030;-72
2021/09/07 08:52:35;;;;;;;4.18;1.92;;;;;;;26.08;33.42;95624.84;10323084;28;20042;-72
2021/09/07 08:57:36;;;;;;;5.25;2.53;;;;;;;23.88;37.08;95620.63;10323091;28;20037;-72
2021/09/07 09:02:43;;;;;;;3.60;1.90;;;;;;;22.78;39.12;95621.47;10323298;28;20079;-70
2021/09/07 09:07:44;;;;;;;4.03;2.25;;;;;;;23.39;38.68;95623.88;10326370;28;20181;-70
2021/09/07 09:12:45;;;;;;;3.92;1.77;;;;;;;24.36;36.10;95621.91;10323204;28;20560;-71
2021/09/07 09:17:45;;;;;;;5.68;1.90;;;;;;;24.35;36.30;95608.50;10326885;28;20022;-71
2021/09/07 09:22:55;;;;;;;7.57;2.22;;;;;;;24.38;36.75;95600.38;10330252;28;20030;-71
2021/09/07 09:27:55;;;;;;;4.88;2.53;;;;;;;23.93;37.27;95603.94;10331548;28;20037;-71
2021/09/07 09:32:59;;;;;;;6.60;2.03;;;;;;;23.13;38.66;95604.84;10329887;28;20027;-72
2021/09/07 09:38:02;;;;;;;5.75;2.17;;;;;;;23.46;38.85;95601.41;10329850;28;20041;-71
2021/09/07 09:43:21;;;;;;;5.63;1.80;;;;;;;24.49;36.32;95591.69;10329601;28;20057;-70
2021/09/07 09:48:31;;;;;;;5.88;2.33;;;;;;;24.03;37.50;95588.97;10312187;28;20030;-72
2021/09/07 09:53:33;;;;;;;5.82;1.73;;;;;;;25.37;34.99;95583.13;10329010;28;20386;-70
2021/09/07 09:58:34;;;;;;;4.63;2.38;;;;;;;26.67;32.53;95573.63;10310953;28;20092;-70
2021/09/07 10:03:37;;;;;;;6.60;1.73;;;;;;;28.35;30.16;95574.84;10328559;28;20030;-70
2021/09/07 10:08:41;;;;;;;13.15;12.20;;;;;;;30.79;26.93;95570.16;10328156;28;20054;-72
2021/09/07 10:13:45;;;;;;;4.93;1.50;;;;;;;32.44;25.98;95570.19;10328517;28;20041;-71
2021/09/07 10:24:50;;;;;;;11.10;10.07;;;;;;;33.05;23.03;95552.75;10285207;28;20137;-72
2021/09/07 10:29:52;;;;;;;5.18;2.47;;;;;;;31.60;24.21;95543.31;10326797;28;20050;-71
2021/09/07 10:35:11;;;;;;;5.82;1.60;;;;;;;32.27;23.80;95548.72;10327788;28;20556;-71
2021/09/07 10:40:40;;;;;;;2.80;2.22;;;;;;;32.06;23.82;95539.13;10327180;28;20026;-71
2021/09/07 10:45:41;;;;;;;20.52;19.10;;;;;;;33.58;23.53;95541.91;10327455;28;20026;-72
2021/09/07 10:50:58;;;;;;;76.38;71.40;;;;;;;33.65;22.93;95533.50;10326739;28;20434;-72
2021/09/07 10:56:26;;;;;;;108.10;100.78;;;;;;;33.51;23.04;95532.34;10326816;28;20177;-73
2021/09/07 11:01:30;;;;;;;71.95;66.78;;;;;;;34.60;21.64;95518.63;10326591;28;20041;-72
2021/09/07 11:06:41;;;;;;;2.17;1.60;;;;;;;32.40;22.87;95518.53;10326466;28;20118;-71
2021/09/07 11:11:41;;;;;;;3.95;1.90;;;;;;;30.14;24.86;95514.88;10312258;28;20570;-72
2021/09/07 11:16:51;;;;;;;8.47;1.97;;;;;;;30.16;26.04;95512.53;10339021;28;20045;-72
2021/09/07 11:21:52;;;;;;;3.42;1.33;;;;;;;27.45;27.08;95515.13;10339892;28;20102;-72
2021/09/07 11:26:58;;;;;;;3.25;1.90;;;;;;;24.82;30.52;95511.88;10324369;28;20145;-72
2021/09/07 11:32:19;;;;;;;4.88;1.80;;;;;;;23.86;31.99;95505.63;10339122;28;20080;-72
2021/09/07 11:37:19;;;;;;;6.05;1.73;;;;;;;22.08;35.83;95517.66;10348169;28;20022;-71
2021/09/07 11:42:20;;;;;;;4.20;1.57;;;;;;;21.48;36.92;95512.78;10340042;28;20022;-71
2021/09/07 11:47:21;;;;;;;4.00;1.80;;;;;;;21.47;37.31;95521.31;10342138;28;20026;-72
2021/09/07 11:52:22;;;;;;;5.25;1.90;;;;;;;21.54;37.92;95510.69;10338131;28;20026;-73
2021/09/07 11:57:22;;;;;;;3.65;1.35;;;;;;;21.47;37.29;95504.88;10343243;28;20021;-73
2021/09/07 12:02:25;;;;;;;2.60;1.70;;;;;;;21.41;37.56;95489.78;10305871;28;20103;-72
2021/09/07 12:07:26;;;;;;;3.10;1.25;;;;;;;21.29;37.57;95485.78;10332550;28;20042;-72
2021/09/07 12:12:27;;;;;;;4.90;1.60;;;;;;;21.07;37.54;95491.41;10339832;28;20034;-72
2021/09/07 12:17:34;;;;;;;2.45;1.50;;;;;;;20.81;38.10;95484.81;10339897;28;20226;-72
2021/09/07 12:22:43;;;;;;;2.55;1.88;;;;;;;20.81;37.68;95473.88;10338655;28;20523;-73
2021/09/07 12:27:51;;;;;;;3.42;1.92;;;;;;;20.70;38.05;95466.34;10323733;28;20041;-72
2021/09/07 12:33:01;;;;;;;4.85;1.73;;;;;;;20.97;37.59;95455.09;10323152;28;20018;-73
2021/09/07 12:38:05;;;;;;;5.97;1.67;;;;;;;20.80;36.48;95469.53;10323056;28;20030;-72
2021/09/07 12:43:17;;;;;;;6.32;1.40;;;;;;;20.60;37.25;95473.66;10305323;28;20477;-72
2021/09/07 12:48:18;;;;;;;3.85;1.55;;;;;;;20.63;36.54;95462.09;10322714;28;20026;-72
2021/09/07 12:53:27;;;;;;;3.13;1.77;;;;;;;20.67;36.54;95454.09;10327384;28;20055;-72
2021/09/07 12:58:29;;;;;;;3.65;1.55;;;;;;;20.77;37.53;95453.00;10330573;28;20498;-72
2021/09/07 13:03:30;;;;;;;6.00;1.60;;;;;;;20.95;38.01;95445.59;10332621;28;20085;-72
2021/09/07 13:08:31;;;;;;;9.10;1.75;;;;;;;20.53;37.47;95446.03;10332305;28;20112;-72
2021/09/07 13:13:32;;;;;;;2.92;1.80;;;;;;;20.39;38.42;95445.38;10364350;28;20108;-72
2021/09/07 13:18:32;;;;;;;4.93;2.30;;;;;;;20.28;39.31;95451.13;10352596;28;20027;-72
2021/09/07 13:23:33;;;;;;;3.20;1.92;;;;;;;20.22;39.71;95448.84;10331781;28;20049;-72
2021/09/07 13:28:33;;;;;;;5.50;2.67;;;;;;;20.16;38.81;95448.19;10346385;28;20037;-72
2021/09/07 13:33:34;;;;;;;5.78;1.92;;;;;;;20.12;40.40;95425.38;10357625;28;20493;-72
2021/09/07 13:38:34;;;;;;;2.42;1.48;;;;;;;20.10;39.93;95424.91;10370393;28;20180;-72
2021/09/07 13:43:35;;;;;;;6.93;1.90;;;;;;;19.84;40.94;95420.16;10351371;28;20033;-72
2021/09/07 13:48:38;;;;;;;3.80;2.00;;;;;;;19.94;40.91;95422.63;10367647;28;20025;-74
2021/09/07 13:53:39;;;;;;;4.25;1.70;;;;;;;20.09;40.88;95426.84;10368089;28;20289;-76
2021/09/07 13:58:39;;;;;;;5.93;1.93;;;;;;;20.08;40.73;95424.41;10366452;28;20022;-74
2021/09/07 14:03:40;;;;;;;3.43;1.73;;;;;;;19.77;41.49;95415.16;10354846;28;20049;-73
2021/09/07 14:08:40;;;;;;;10.48;2.13;;;;;;;19.76;41.79;95404.56;10343936;28;20160;-73
2021/09/07 14:13:41;;;;;;;3.40;1.83;;;;;;;19.74;41.78;95414.97;10350301;28;20030;-73
2021/09/07 14:18:42;;;;;;;2.72;1.63;;;;;;;19.73;42.00;95414.19;10330928;28;20101;-73
2021/09/07 14:23:43;;;;;;;3.03;1.95;;;;;;;19.85;42.29;95413.59;10344174;28;20104;-73
2021/09/07 14:28:44;;;;;;;5.57;2.63;;;;;;;19.79;41.69;95407.47;10367401;28;20037;-74
2021/09/07 14:33:45;;;;;;;6.85;1.67;;;;;;;19.58;43.04;95407.22;10367168;28;20026;-73
2021/09/07 14:38:45;;;;;;;3.17;1.30;;;;;;;19.46;43.16;95405.06;10331628;28;20026;-73
2021/09/07 14:43:45;;;;;;;2.70;1.53;;;;;;;19.54;43.35;95408.97;10326067;28;20090;-73
2021/09/07 14:48:46;;;;;;;4.23;2.77;;;;;;;19.57;43.20;95404.81;10326362;28;20377;-73
2021/09/07 14:53:47;;;;;;;10.17;2.73;;;;;;;19.69;43.42;95406.94;10326480;28;20795;-74
2021/09/07 14:58:47;;;;;;;2.88;2.08;;;;;;;19.70;43.55;95401.16;10324408;28;20526;-73
2021/09/07 15:03:48;;;;;;;6.43;1.50;;;;;;;19.60;43.37;95402.22;10325737;28;20022;-74
2021/09/07 15:08:48;;;;;;;2.90;1.50;;;;;;;19.52;43.53;95408.47;10324987;28;20129;-73
2021/09/07 15:13:48;;;;;;;2.30;1.20;;;;;;;19.41;43.76;95405.22;10323743;28;20442;-73
2021/09/07 15:18:49;;;;;;;2.27;1.37;;;;;;;19.37;45.09;95395.22;10324566;28;20034;-73
2021/09/07 15:23:49;;;;;;;4.57;1.57;;;;;;;19.44;46.18;95395.63;10341970;28;20093;-73
2021/09/07 15:28:52;;;;;;;3.63;1.40;;;;;;;19.28;46.04;95398.75;10365035;28;20064;-73
2021/09/07 15:33:53;;;;;;;2.72;1.20;;;;;;;19.10;46.65;95397.84;10364147;28;20285;-75
2021/09/07 15:38:53;;;;;;;2.83;1.40;;;;;;;18.85;48.12;95396.53;10363816;28;20398;-74
2021/09/07 15:43:54;;;;;;;8.48;1.52;;;;;;;18.89;49.11;95397.53;10364745;28;20351;-73
2021/09/07 15:48:55;;;;;;;3.90;1.60;;;;;;;18.84;49.37;95397.63;10364821;28;20029;-74
2021/09/07 15:53:55;;;;;;;3.40;1.57;;;;;;;18.73;49.58;95399.00;10364086;28;20432;-72
2021/09/07 15:58:55;;;;;;;3.27;1.10;;;;;;;18.56;50.53;95377.88;10321661;28;20835;-72
2021/09/07 16:03:57;;;;;;;2.77;1.47;;;;;;;18.51;50.57;95384.22;10312223;28;20035;-72
2021/09/07 16:08:58;;;;;;;4.30;1.52;;;;;;;18.43;51.61;95384.97;10310398;28;20058;-73
2021/09/07 16:13:58;;;;;;;3.53;1.83;;;;;;;18.42;52.17;95391.53;10283246;28;20831;-73
2021/09/07 16:18:58;;;;;;;3.37;1.43;;;;;;;18.42;53.31;95392.34;10285343;28;20506;-72
2021/09/07 16:23:59;;;;;;;3.23;1.30;;;;;;;18.35;53.65;95378.34;10301265;28;20096;-74
2021/09/07 16:28:59;;;;;;;9.53;1.70;;;;;;;18.42;54.42;95384.16;10286220;28;20030;-71
2021/09/07 16:34:00;;;;;;;4.00;1.50;;;;;;;18.37;55.85;95387.00;10282377;28;20030;-72
2021/09/07 16:39:01;;;;;;;2.45;1.45;;;;;;;18.18;56.06;95395.31;10282627;28;20050;-72
2021/09/07 16:44:02;;;;;;;8.52;1.67;;;;;;;18.07;57.74;95399.34;10282442;28;20155;-72
2021/09/07 16:49:02;;;;;;;1.80;1.42;;;;;;;17.91;59.23;95394.22;10282227;28;20031;-71
2021/09/07 16:59:12;;;;;;;3.22;1.65;;;;;;;17.73;62.47;95406.00;10337038;28;20026;-72
2021/09/07 17:04:13;;;;;;;3.93;1.70;;;;;;;17.60;63.56;95413.84;10341730;28;20486;-71
2021/09/07 17:09:13;;;;;;;5.60;2.30;;;;;;;17.57;63.27;95403.56;10338210;28;20514;-71
2021/09/07 17:14:13;;;;;;;10.10;2.47;;;;;;;17.48;65.14;95407.28;10323458;28;20285;-71
2021/09/07 17:19:14;;;;;;;10.93;2.43;;;;;;;17.32;67.37;95413.00;10336256;28;20280;-71
2021/09/07 17:24:17;;;;;;;6.07;3.28;;;;;;;17.37;67.54;95420.25;10336101;28;20261;-72
2021/09/07 17:29:21;;;;;;;2.58;1.73;;;;;;;17.31;68.22;95426.91;10337143;28;20485;-72
2021/09/07 17:41:33;;;;;;;3.60;1.83;;;;;;;17.23;71.29;95431.91;10343055;28;20022;-73
2021/09/07 17:44:45;;;;;;;6.18;2.13;;;;;;;17.11;72.19;95428.88;10345668;28;20569;-73
2021/09/07 17:49:47;;;;;;;7.30;2.22;;;;;;;17.03;73.61;95437.69;10346009;28;20856;-72
2021/09/07 17:54:47;;;;;;;10.15;4.88;;;;;;;17.05;74.85;95444.44;10347129;28;20037;-72
2021/09/07 17:59:47;;;;;;;11.10;2.83;;;;;;;17.17;73.77;95451.31;10344897;28;20049;-72
2021/09/07 18:04:48;;;;;;;3.65;2.20;;;;;;;17.11;75.68;95457.91;10345596;28;20038;-73
2021/09/07 18:09:48;;;;;;;9.90;2.70;;;;;;;17.08;76.83;95462.06;10344332;28;20065;-72
2021/09/07 18:14:49;;;;;;;3.10;1.87;;;;;;;16.99;76.86;95455.66;10345705;28;20565;-72
2021/09/07 18:19:52;;;;;;;3.42;2.28;;;;;;;16.91;78.09;95473.44;10336664;28;20108;-75
2021/09/07 18:24:52;;;;;;;5.30;2.30;;;;;;;16.87;78.45;95466.94;10304846;28;20030;-75
2021/09/07 18:29:52;;;;;;;6.93;3.10;;;;;;;16.82;79.54;95475.97;10305404;28;20490;-74
2021/09/07 18:34:53;;;;;;;6.32;2.40;;;;;;;16.85;79.08;95472.66;10310834;28;20292;-75
2021/09/07 18:39:54;;;;;;;4.47;2.53;;;;;;;16.81;79.66;95468.13;10285203;28;20129;-75
2021/09/07 18:44:54;;;;;;;4.03;2.80;;;;;;;16.92;78.31;95478.56;10303366;28;20030;-73
2021/09/07 18:49:54;;;;;;;6.77;2.73;;;;;;;16.94;78.26;95461.19;10294075;28;20034;-72
2021/09/07 18:54:55;;;;;;;4.63;2.00;;;;;;;16.84;79.16;95476.50;10295076;28;20034;-72
2021/09/07 18:59:59;;;;;;;4.60;2.50;;;;;;;16.83;79.67;95472.19;10288538;28;20105;-72
2021/09/07 19:04:59;;;;;;;4.00;2.33;;;;;;;16.78;79.05;95469.53;10286046;28;20030;-72
2021/09/07 19:10:00;;;;;;;6.43;3.00;;;;;;;16.80;82.12;95463.81;10284843;28;20051;-72
2021/09/07 19:15:01;;;;;;;9.10;2.80;;;;;;;16.70;83.29;95472.91;10285219;28;20282;-73
2021/09/07 19:20:02;;;;;;;3.58;2.47;;;;;;;16.67;84.84;95468.06;10285855;28;20034;-73
2021/09/07 19:25:03;;;;;;;6.03;2.97;;;;;;;16.53;86.58;95471.50;10270967;28;20462;-72
2021/09/07 19:30:05;;;;;;;6.43;2.85;;;;;;;16.40;88.44;95481.19;10284570;28;20038;-72
2021/09/07 19:35:06;;;;;;;9.63;2.45;;;;;;;16.29;87.60;95490.56;10288253;28;20737;-72
2021/09/07 19:40:08;;;;;;;4.97;2.60;;;;;;;16.30;87.32;95485.91;10290863;28;20415;-72
2021/09/07 19:45:09;;;;;;;4.53;3.33;;;;;;;16.25;87.02;95481.38;10292415;28;20038;-72
2021/09/07 19:50:11;;;;;;;4.75;2.40;;;;;;;16.17;89.17;95488.28;10267142;28;20038;-72
2021/09/07 19:55:12;;;;;;;5.90;3.03;;;;;;;16.16;90.08;95481.22;10283764;28;20805;-72
2021/09/07 20:00:13;;;;;;;5.45;2.67;;;;;;;16.17;90.33;95487.44;10338710;28;20026;-72
2021/09/07 20:05:13;;;;;;;3.97;2.67;;;;;;;16.15;92.64;95478.81;10343696;28;20030;-72
2021/09/07 20:10:14;;;;;;;3.75;2.17;;;;;;;16.11;92.60;95489.41;10292855;28;20855;-72
2021/09/07 20:15:14;;;;;;;7.70;2.10;;;;;;;15.91;94.05;95493.19;10314496;28;20041;-72
2021/09/07 20:20:17;;;;;;;4.43;2.20;;;;;;;15.77;96.66;95484.91;10283359;28;20074;-72
2021/09/07 20:25:17;;;;;;;10.40;3.10;;;;;;;15.57;98.96;95491.31;10312435;28;20100;-72
2021/09/07 20:30:18;;;;;;;15.50;2.40;;;;;;;15.25;100.00;95495.41;10322435;28;20092;-73
2021/09/07 20:35:19;;;;;;;4.80;2.70;;;;;;;15.07;100.00;95496.91;10322970;28;20125;-71
2021/09/07 20:40:19;;;;;;;4.15;2.30;;;;;;;14.89;100.00;95490.28;10323735;28;20029;-72
2021/09/07 20:45:20;;;;;;;5.40;2.77;;;;;;;14.82;100.00;95496.00;10322896;28;20029;-72
2021/09/07 20:50:21;;;;;;;6.38;2.67;;;;;;;14.75;100.00;95503.63;10322803;28;20034;-72
2021/09/07 20:55:21;;;;;;;8.50;2.67;;;;;;;14.68;100.00;95511.25;10307144;28;20034;-72
2021/09/07 21:00:22;;;;;;;3.83;2.07;;;;;;;14.62;100.00;95504.22;10313215;28;20553;-72
2021/09/07 21:05:22;;;;;;;4.28;2.67;;;;;;;14.48;100.00;95507.56;10300604;28;20290;-73
2021/09/07 21:10:22;;;;;;;5.07;2.53;;;;;;;14.36;100.00;95499.75;10300041;28;20065;-72
2021/09/07 21:15:23;;;;;;;3.87;2.70;;;;;;;14.33;100.00;95502.19;10335518;28;20285;-72
2021/09/07 21:20:25;;;;;;;11.90;3.50;;;;;;;14.25;100.00;95505.50;10353526;28;20050;-72
2021/09/07 21:25:25;;;;;;;12.40;4.82;;;;;;;14.29;100.00;95498.44;10323911;28;20088;-72
2021/09/07 21:30:26;;;;;;;7.47;3.10;;;;;;;14.32;100.00;95512.22;10298107;28;20030;-72
2021/09/07 21:35:27;;;;;;;8.75;3.58;;;;;;;14.25;100.00;95506.31;10324342;28;20300;-72
2021/09/07 21:40:27;;;;;;;10.52;3.80;;;;;;;14.34;100.00;95515.47;10329482;28;20092;-72
2021/09/07 21:45:27;;;;;;;6.22;4.43;;;;;;;14.30;100.00;95521.69;10329174;28;20432;-72
2021/09/07 21:50:28;;;;;;;6.90;4.13;;;;;;;14.39;100.00;95519.22;10274100;28;20035;-72
2021/09/07 21:55:28;;;;;;;8.07;3.97;;;;;;;14.32;100.00;95530.34;10288505;28;20034;-72
2021/09/07 22:00:31;;;;;;;8.30;3.90;;;;;;;14.31;100.00;95526.81;10288326;28;20038;-72
2021/09/07 22:05:32;;;;;;;11.38;5.13;;;;;;;14.26;100.00;95528.72;10288169;28;20035;-72
2021/09/07 22:10:32;;;;;;;8.77;4.43;;;;;;;14.21;100.00;95540.38;10287983;28;20558;-72
2021/09/07 22:15:32;;;;;;;8.20;4.80;;;;;;;14.22;100.00;95530.38;10270746;28;20031;-72
2021/09/07 22:20:33;;;;;;;5.83;4.80;;;;;;;14.22;100.00;95535.78;10302955;28;20889;-72
2021/09/07 22:25:33;;;;;;;8.33;5.33;;;;;;;14.14;100.00;95537.97;10322348;28;20482;-72
2021/09/07 22:30:34;;;;;;;7.55;5.03;;;;;;;14.11;100.00;95541.22;10327413;28;20316;-72
2021/09/07 22:35:34;;;;;;;7.80;4.88;;;;;;;14.02;100.00;95541.00;10326921;28;20394;-72
2021/09/07 22:40:35;;;;;;;9.23;5.60;;;;;;;13.99;100.00;95546.13;10327531;28;20085;-72
2021/09/07 22:45:35;;;;;;;7.87;5.47;;;;;;;13.93;100.00;95536.44;10327315;28;20843;-72
2021/09/07 22:50:36;;;;;;;6.32;4.72;;;;;;;13.81;100.00;95542.13;10326413;28;20475;-72
2021/09/07 22:55:36;;;;;;;6.07;4.80;;;;;;;13.80;100.00;95543.19;10297859;28;20026;-72
2021/09/07 23:00:37;;;;;;;9.73;4.45;;;;;;;13.78;100.00;95545.38;10285613;28;20058;-72
2021/09/07 23:05:37;;;;;;;8.00;3.92;;;;;;;13.74;100.00;95555.91;10285018;28;20042;-72
2021/09/07 23:10:38;;;;;;;5.75;4.00;;;;;;;13.70;100.00;95537.81;10284752;28;20061;-72
2021/09/07 23:15:38;;;;;;;6.43;4.00;;;;;;;13.68;100.00;95538.09;10284033;28;20699;-72
2021/09/07 23:20:38;;;;;;;6.47;4.13;;;;;;;13.68;100.00;95538.09;10284077;28;20561;-72
2021/09/07 23:25:39;;;;;;;8.73;3.97;;;;;;;13.63;100.00;95538.91;10283244;28;20494;-72